Time;durP1;ratioP1;P1;durP2;ratioP2;P2;SDS_P1;SDS_P2;PMS_P1;PMS_P2;Temp;Humidity;BMP_temperature;BMP_pressure;BME280_temperature;BME280_humidity;BME280_pressure;Samples;Min_cycle;Max_cycle;Signal;HPM_P1;HPM_P2
2021/11/21 00:00:56;;;;;;;32.65;21.00;;;8.50;99.90;;;;;;2107434;28;20020;-74
2021/11/21 00:01:57;;;;;;;33.90;22.00;;;8.50;99.90;;;;;;2098757;28;20024;-76
2021/11/21 00:02:58;;;;;;;30.33;20.10;;;8.40;99.90;;;;;;2099101;28;20440;-76
2021/11/21 00:03:59;;;;;;;29.70;19.88;;;8.40;99.90;;;;;;2108340;28;20797;-77
2021/11/21 00:05:00;;;;;;;31.27;21.15;;;8.50;99.90;;;;;;2107604;28;20029;-74
2021/11/21 00:06:00;;;;;;;31.08;20.17;;;8.50;99.90;;;;;;2104232;28;20028;-72
2021/11/21 00:07:02;;;;;;;30.02;20.10;;;8.40;99.90;;;;;;2107388;28;20111;-71
2021/11/21 00:08:03;;;;;;;30.05;20.73;;;8.40;99.90;;;;;;2107560;28;20020;-72
2021/11/21 00:09:05;;;;;;;30.40;20.67;;;8.40;99.90;;;;;;2108134;28;20102;-71
2021/11/21 00:10:07;;;;;;;31.83;21.33;;;8.30;99.90;;;;;;2107993;28;20027;-71
2021/11/21 00:11:07;;;;;;;31.42;21.35;;;8.30;99.90;;;;;;2107750;28;20047;-71
2021/11/21 00:12:08;;;;;;;33.58;21.65;;;8.20;99.90;;;;;;2107743;28;20024;-71
2021/11/21 00:13:10;;;;;;;30.77;20.55;;;8.20;99.90;;;;;;2107352;28;20145;-71
2021/11/21 00:14:11;;;;;;;31.67;21.35;;;8.20;99.90;;;;;;2099078;28;20043;-70
2021/11/21 00:15:12;;;;;;;32.17;21.23;;;8.10;99.90;;;;;;2106056;28;20101;-72
2021/11/21 00:16:12;;;;;;;31.35;20.60;;;8.10;99.90;;;;;;2115731;28;20660;-71
2021/11/21 00:17:13;;;;;;;33.15;21.30;;;8.00;99.90;;;;;;2116403;27;20059;-71
2021/11/21 00:18:14;;;;;;;32.33;21.50;;;8.00;99.90;;;;;;2115971;27;20027;-71
2021/11/21 00:19:15;;;;;;;32.70;21.30;;;7.90;99.90;;;;;;2115860;28;20506;-71
2021/11/21 00:20:16;;;;;;;32.50;21.92;;;7.90;99.90;;;;;;2115830;28;20027;-71
2021/11/21 00:21:17;;;;;;;35.05;21.63;;;7.90;99.90;;;;;;2115664;28;20019;-71
2021/11/21 00:22:18;;;;;;;31.17;20.65;;;7.80;99.90;;;;;;2115593;27;20035;-71
2021/11/21 00:23:22;;;;;;;30.25;20.00;;;7.80;99.90;;;;;;2115766;27;20035;-70
2021/11/21 00:24:23;;;;;;;35.28;22.13;;;7.70;99.90;;;;;;2116201;27;20030;-69
2021/11/21 00:25:26;;;;;;;32.85;21.25;;;7.70;99.90;;;;;;2116436;28;20039;-70
2021/11/21 00:26:27;;;;;;;33.33;20.92;;;7.70;99.90;;;;;;2115834;28;20027;-70
2021/11/21 00:27:28;;;;;;;32.38;21.30;;;7.60;99.90;;;;;;2107421;28;20494;-70
2021/11/21 00:28:29;;;;;;;30.88;20.60;;;7.60;99.90;;;;;;2106825;28;20028;-70
2021/11/21 00:29:30;;;;;;;32.85;21.10;;;7.60;99.90;;;;;;2107315;28;20024;-70
2021/11/21 00:30:31;;;;;;;30.98;20.48;;;7.50;99.90;;;;;;2115658;28;20085;-70
2021/11/21 00:31:31;;;;;;;31.40;20.30;;;7.50;99.90;;;;;;2116046;27;20364;-70
2021/11/21 00:32:33;;;;;;;31.92;20.30;;;7.50;99.90;;;;;;2100434;28;20048;-70
2021/11/21 00:33:33;;;;;;;31.52;20.20;;;7.50;99.90;;;;;;2099311;28;20032;-70
2021/11/21 00:34:35;;;;;;;30.20;20.23;;;7.50;99.90;;;;;;2099514;28;20025;-70
2021/11/21 00:35:36;;;;;;;31.67;20.83;;;7.40;99.90;;;;;;2099629;28;20021;-70
2021/11/21 00:36:37;;;;;;;30.85;20.25;;;7.40;99.90;;;;;;2099032;28;20050;-70
2021/11/21 00:37:38;;;;;;;32.25;20.80;;;7.40;99.90;;;;;;2090616;28;20203;-72
2021/11/21 00:38:38;;;;;;;32.53;20.58;;;7.40;99.90;;;;;;2098609;28;20783;-71
2021/11/21 00:39:39;;;;;;;31.67;20.35;;;7.30;99.90;;;;;;2098886;28;20810;-71
2021/11/21 00:40:40;;;;;;;31.08;20.02;;;7.30;99.90;;;;;;2099674;28;20028;-71
2021/11/21 00:41:41;;;;;;;32.03;20.80;;;7.40;99.90;;;;;;2099322;28;20021;-70
2021/11/21 00:42:42;;;;;;;31.15;20.73;;;7.30;99.90;;;;;;2099672;28;20035;-71
2021/11/21 00:43:43;;;;;;;31.15;20.45;;;7.30;99.90;;;;;;2100841;28;20398;-71
2021/11/21 00:44:44;;;;;;;30.80;20.05;;;7.30;99.90;;;;;;2102128;28;20395;-71
2021/11/21 00:45:45;;;;;;;29.75;19.73;;;7.30;99.90;;;;;;2102499;28;20099;-72
2021/11/21 00:46:46;;;;;;;30.25;19.48;;;7.30;99.90;;;;;;2102046;28;20098;-71
2021/11/21 00:47:46;;;;;;;30.00;19.65;;;7.30;99.90;;;;;;2103154;28;20427;-71
2021/11/21 00:48:48;;;;;;;33.35;21.52;;;7.30;99.90;;;;;;2100943;28;20035;-71
2021/11/21 00:49:49;;;;;;;33.33;20.90;;;7.30;99.90;;;;;;2101887;28;20499;-71
2021/11/21 00:50:53;;;;;;;31.10;20.42;;;7.30;99.90;;;;;;2101646;28;20056;-72
2021/11/21 00:51:54;;;;;;;31.17;19.63;;;7.30;99.90;;;;;;2098569;28;20020;-71
2021/11/21 00:53:00;;;;;;;27.80;19.13;;;7.30;99.90;;;;;;2098701;28;20042;-71
2021/11/21 00:55:39;;;;;;;29.25;19.23;;;7.30;99.90;;;;;;2097736;28;20045;-70
2021/11/21 00:56:40;;;;;;;30.00;20.08;;;7.40;99.90;;;;;;2098087;28;20025;-71
2021/11/21 00:57:42;;;;;;;31.00;19.75;;;7.40;99.90;;;;;;2098121;28;20067;-71
2021/11/21 00:58:42;;;;;;;28.75;19.20;;;7.50;99.90;;;;;;2097811;28;20031;-71
2021/11/21 00:59:44;;;;;;;32.17;20.58;;;7.50;99.90;;;;;;2098057;28;20099;-70
2021/11/21 01:00:49;;;;;;;29.98;19.38;;;7.50;99.90;;;;;;2097449;28;20170;-71
2021/11/21 01:01:51;;;;;;;30.13;19.98;;;7.50;99.90;;;;;;2097320;28;20127;-71
2021/11/21 01:02:53;;;;;;;30.10;19.33;;;7.50;99.90;;;;;;2097548;28;20450;-70
2021/11/21 01:03:56;;;;;;;31.08;20.02;;;7.50;99.90;;;;;;2097595;28;20036;-71
2021/11/21 01:04:59;;;;;;;26.52;18.30;;;7.50;99.90;;;;;;2098132;28;20029;-71
2021/11/21 01:06:01;;;;;;;30.05;19.40;;;7.60;99.90;;;;;;2098175;28;20036;-70
2021/11/21 01:07:03;;;;;;;31.00;19.45;;;7.50;99.90;;;;;;2097436;28;20043;-70
2021/11/21 01:08:04;;;;;;;32.85;20.83;;;7.50;99.90;;;;;;2096999;28;20055;-70
2021/11/21 01:09:05;;;;;;;32.28;20.70;;;7.50;99.90;;;;;;2097286;28;20111;-70
2021/11/21 01:10:17;;;;;;;31.58;20.60;;;7.50;99.90;;;;;;2097214;28;20043;-70
2021/11/21 01:11:18;;;;;;;33.10;20.85;;;7.50;99.90;;;;;;2097202;28;20024;-70
2021/11/21 01:12:19;;;;;;;35.35;21.55;;;7.60;99.90;;;;;;2097355;28;20126;-70
2021/11/21 01:13:21;;;;;;;32.95;20.92;;;7.60;99.90;;;;;;2097329;28;20610;-71
2021/11/21 01:14:22;;;;;;;30.95;19.88;;;7.60;99.90;;;;;;2089150;28;20037;-71
2021/11/21 01:15:24;;;;;;;32.25;20.13;;;7.50;99.90;;;;;;2097375;28;20024;-70
2021/11/21 01:16:26;;;;;;;31.02;19.70;;;7.60;99.90;;;;;;2097979;28;20031;-70
2021/11/21 01:17:27;;;;;;;32.53;20.52;;;7.60;99.90;;;;;;2097345;28;20024;-70
2021/11/21 01:18:28;;;;;;;31.30;20.40;;;7.60;99.90;;;;;;2096600;28;20416;-70
2021/11/21 01:19:29;;;;;;;30.02;19.80;;;7.60;99.90;;;;;;2097962;28;20028;-71
2021/11/21 01:20:32;;;;;;;31.05;20.40;;;7.60;99.90;;;;;;2097755;28;20028;-71
2021/11/21 01:21:33;;;;;;;30.80;20.17;;;7.60;99.90;;;;;;2096895;28;20035;-70
2021/11/21 01:22:35;;;;;;;30.50;19.40;;;7.60;99.90;;;;;;2097309;28;20032;-70
2021/11/21 01:23:36;;;;;;;30.75;19.73;;;7.60;99.90;;;;;;2097120;28;20039;-71
2021/11/21 01:24:37;;;;;;;29.15;19.73;;;7.50;99.90;;;;;;2097282;28;20025;-70
2021/11/21 01:25:39;;;;;;;30.35;19.77;;;7.50;99.90;;;;;;2097249;28;20028;-70
2021/11/21 01:26:39;;;;;;;29.73;19.80;;;7.50;99.90;;;;;;2080761;28;20043;-70
2021/11/21 01:27:40;;;;;;;31.10;20.55;;;7.50;99.90;;;;;;2088769;28;20025;-72
2021/11/21 01:28:41;;;;;;;31.73;20.20;;;7.50;99.90;;;;;;2096730;28;20424;-71
2021/11/21 01:29:42;;;;;;;32.78;21.50;;;7.50;99.90;;;;;;2097122;28;20047;-71
2021/11/21 01:30:44;;;;;;;32.25;20.60;;;7.50;99.90;;;;;;2088798;28;20732;-71
2021/11/21 01:31:47;;;;;;;35.38;22.42;;;7.50;99.90;;;;;;2088820;28;20025;-71
2021/11/21 01:32:49;;;;;;;33.08;20.90;;;7.50;99.90;;;;;;2097261;28;20534;-71
2021/11/21 01:33:50;;;;;;;32.13;20.85;;;7.50;99.90;;;;;;2097271;28;20078;-71
2021/11/21 01:34:50;;;;;;;32.28;21.33;;;7.50;99.90;;;;;;2097266;28;20096;-71
2021/11/21 01:35:52;;;;;;;31.10;20.45;;;7.50;99.90;;;;;;2088852;28;20126;-71
2021/11/21 01:36:53;;;;;;;36.10;23.25;;;7.50;99.90;;;;;;2089029;28;20029;-71
2021/11/21 01:37:54;;;;;;;36.70;23.10;;;7.50;99.90;;;;;;2097741;28;20027;-71
2021/11/21 01:38:55;;;;;;;34.67;22.60;;;7.50;99.90;;;;;;2097291;28;20021;-70
2021/11/21 01:39:56;;;;;;;37.13;24.23;;;7.40;99.90;;;;;;2097099;28;20115;-70
2021/11/21 01:40:57;;;;;;;40.47;24.17;;;7.40;99.90;;;;;;2088929;28;20894;-71
2021/11/21 01:41:58;;;;;;;38.97;24.17;;;7.40;99.90;;;;;;2096956;28;20454;-71
2021/11/21 01:43:00;;;;;;;36.15;23.42;;;7.40;99.90;;;;;;2098249;28;20029;-71
2021/11/21 01:44:00;;;;;;;34.83;21.80;;;7.40;99.90;;;;;;2100711;28;20035;-72
2021/11/21 01:45:01;;;;;;;33.38;22.40;;;7.40;99.90;;;;;;2100600;28;20059;-72
2021/11/21 01:46:03;;;;;;;34.08;21.73;;;7.40;99.90;;;;;;2100557;28;20036;-72
2021/11/21 01:47:05;;;;;;;31.88;20.52;;;7.40;99.90;;;;;;2099561;28;20128;-72
2021/11/21 01:48:06;;;;;;;34.55;21.75;;;7.40;99.90;;;;;;2097198;28;20024;-71
2021/11/21 01:49:07;;;;;;;35.90;22.38;;;7.40;99.90;;;;;;2097617;28;20040;-71
2021/11/21 01:50:12;;;;;;;35.50;22.95;;;7.40;99.90;;;;;;2097936;28;20034;-69
2021/11/21 01:51:13;;;;;;;35.95;22.90;;;7.40;99.90;;;;;;2097562;28;20032;-70
2021/11/21 01:52:14;;;;;;;36.90;23.23;;;7.40;99.90;;;;;;2097038;28;20138;-71
2021/11/21 01:53:15;;;;;;;40.30;23.35;;;7.40;99.90;;;;;;2096980;28;20104;-70
2021/11/21 01:54:17;;;;;;;35.58;23.25;;;7.40;99.90;;;;;;2097488;28;20139;-70
2021/11/21 01:55:18;;;;;;;35.45;21.77;;;7.40;99.90;;;;;;2097619;28;20016;-71
2021/11/21 01:56:19;;;;;;;35.42;22.38;;;7.40;99.90;;;;;;2097611;28;20032;-71
2021/11/21 01:57:20;;;;;;;32.63;20.83;;;7.40;99.90;;;;;;2096877;28;20036;-71
2021/11/21 01:58:21;;;;;;;34.35;22.00;;;7.40;99.90;;;;;;2096483;28;20028;-71
2021/11/21 01:59:21;;;;;;;37.40;24.20;;;7.40;99.90;;;;;;2096831;28;20827;-70
2021/11/21 02:00:25;;;;;;;36.53;23.38;;;7.40;99.90;;;;;;2096551;28;20036;-71
2021/11/21 02:01:26;;;;;;;35.33;22.88;;;7.40;99.90;;;;;;2096688;28;20775;-71
2021/11/21 02:02:27;;;;;;;35.00;21.90;;;7.40;99.90;;;;;;2097089;28;20039;-71
2021/11/21 02:03:27;;;;;;;35.85;22.98;;;7.40;99.90;;;;;;2097089;28;20489;-71
2021/11/21 02:04:31;;;;;;;33.13;21.95;;;7.40;99.90;;;;;;2097271;28;20024;-73
2021/11/21 02:05:39;;;;;;;34.83;22.50;;;7.40;99.90;;;;;;2088892;28;20425;-71
2021/11/21 02:06:43;;;;;;;31.65;20.75;;;7.40;99.90;;;;;;2090333;28;20099;-71
2021/11/21 02:07:46;;;;;;;34.25;21.45;;;7.40;99.90;;;;;;2088583;28;20140;-71
2021/11/21 02:08:52;;;;;;;33.58;21.15;;;7.40;99.90;;;;;;2088469;28;20112;-71
2021/11/21 02:09:52;;;;;;;34.08;21.88;;;7.40;99.90;;;;;;2097609;28;20447;-71
2021/11/21 02:10:58;;;;;;;33.20;21.52;;;7.40;99.90;;;;;;2096928;28;20052;-71
2021/11/21 02:11:59;;;;;;;35.05;21.65;;;7.40;99.90;;;;;;2096699;28;20024;-71
2021/11/21 02:13:05;;;;;;;32.90;21.23;;;7.40;99.90;;;;;;2097035;28;20052;-71
2021/11/21 02:14:06;;;;;;;34.55;21.65;;;7.40;99.90;;;;;;2097166;28;20028;-71
2021/11/21 02:15:13;;;;;;;31.77;20.80;;;7.40;99.90;;;;;;2097497;28;20104;-71
2021/11/21 02:16:14;;;;;;;33.42;22.02;;;7.40;99.90;;;;;;2097495;28;20043;-71
2021/11/21 02:17:15;;;;;;;33.72;21.15;;;7.40;99.90;;;;;;2097417;28;20041;-71
2021/11/21 02:18:16;;;;;;;33.50;21.50;;;7.40;99.90;;;;;;2096220;28;20114;-72
2021/11/21 02:19:18;;;;;;;34.45;22.00;;;7.40;99.90;;;;;;2096785;28;20028;-71
2021/11/21 02:20:34;;;;;;;33.10;22.17;;;7.40;99.90;;;;;;2096674;28;20025;-71
2021/11/21 02:21:34;;;;;;;35.40;22.98;;;7.40;99.90;;;;;;2097256;28;20024;-71
2021/11/21 02:22:40;;;;;;;34.95;22.27;;;7.40;99.90;;;;;;2097734;28;20025;-72
2021/11/21 02:23:42;;;;;;;33.58;21.63;;;7.40;99.90;;;;;;2097610;28;20494;-72
2021/11/21 02:24:43;;;;;;;34.47;21.45;;;7.40;99.90;;;;;;2097827;28;20383;-72
2021/11/21 02:25:44;;;;;;;31.17;20.83;;;7.40;99.90;;;;;;2096849;28;20025;-71
2021/11/21 02:26:44;;;;;;;32.47;20.60;;;7.40;99.90;;;;;;2097212;28;20090;-72
2021/11/21 02:27:45;;;;;;;32.28;21.35;;;7.40;99.90;;;;;;2097824;28;20119;-69
2021/11/21 02:28:48;;;;;;;31.98;20.55;;;7.50;99.90;;;;;;2088404;28;20025;-69
2021/11/21 02:29:49;;;;;;;31.50;20.52;;;7.50;99.90;;;;;;2089350;28;20041;-70
2021/11/21 02:30:53;;;;;;;30.63;20.42;;;7.50;99.90;;;;;;2098162;28;20388;-72
2021/11/21 02:31:54;;;;;;;31.52;20.15;;;7.50;99.90;;;;;;2097040;28;20024;-73
2021/11/21 02:32:55;;;;;;;30.10;19.13;;;7.50;99.90;;;;;;2097302;28;20139;-73
2021/11/21 02:33:56;;;;;;;29.70;19.02;;;7.50;99.90;;;;;;2097641;28;20376;-73
2021/11/21 02:34:57;;;;;;;29.67;19.17;;;7.50;99.90;;;;;;2097290;28;20048;-70
2021/11/21 02:36:01;;;;;;;30.13;19.05;;;7.50;99.90;;;;;;2097532;28;20032;-70
2021/11/21 02:37:06;;;;;;;29.40;19.13;;;7.50;99.90;;;;;;2096436;28;20036;-71
2021/11/21 02:38:09;;;;;;;30.23;19.63;;;7.50;99.90;;;;;;2096266;28;20057;-71
2021/11/21 02:39:13;;;;;;;30.60;19.58;;;7.60;99.90;;;;;;2097310;28;20039;-71
2021/11/21 02:40:16;;;;;;;31.88;20.58;;;7.60;99.90;;;;;;2097239;28;20476;-71
2021/11/21 02:41:17;;;;;;;31.40;19.85;;;7.60;99.90;;;;;;2096384;28;20075;-70
2021/11/21 02:42:28;;;;;;;30.40;19.80;;;7.60;99.90;;;;;;2096680;28;20039;-72
2021/11/21 02:43:28;;;;;;;29.75;19.20;;;7.60;99.90;;;;;;2088501;28;20028;-71
2021/11/21 02:44:29;;;;;;;30.95;19.15;;;7.60;99.90;;;;;;2088235;28;20425;-70
2021/11/21 02:45:30;;;;;;;30.52;19.92;;;7.60;99.90;;;;;;2088322;28;20041;-72
2021/11/21 02:46:36;;;;;;;29.40;19.27;;;7.70;99.90;;;;;;2096721;28;20032;-71
2021/11/21 02:47:41;;;;;;;32.33;20.25;;;7.70;99.90;;;;;;2089550;28;20443;-72
2021/11/21 02:48:46;;;;;;;30.13;19.88;;;7.70;99.90;;;;;;2082584;28;20374;-71
2021/11/21 02:49:50;;;;;;;30.98;19.92;;;7.70;99.90;;;;;;2096651;28;20395;-71
2021/11/21 02:50:52;;;;;;;33.33;20.50;;;7.60;99.90;;;;;;2097166;28;20035;-72
2021/11/21 02:51:53;;;;;;;28.00;18.90;;;7.70;99.90;;;;;;2096220;28;20033;-72
2021/11/21 02:52:56;;;;;;;28.17;18.83;;;7.70;99.90;;;;;;2096267;28;20036;-73
2021/11/21 02:53:57;;;;;;;28.65;19.10;;;7.70;99.90;;;;;;2088356;28;20508;-72
2021/11/21 02:54:58;;;;;;;27.25;18.50;;;7.70;99.90;;;;;;2096537;28;20683;-72
2021/11/21 02:56:07;;;;;;;29.63;19.40;;;7.70;99.90;;;;;;2096485;28;20035;-71
2021/11/21 02:57:08;;;;;;;27.67;18.67;;;7.70;99.90;;;;;;2096581;28;20032;-72
2021/11/21 02:58:09;;;;;;;31.70;20.08;;;7.70;99.90;;;;;;2096798;28;20047;-72
2021/11/21 02:59:10;;;;;;;29.23;19.55;;;7.70;99.90;;;;;;2097292;28;20023;-71
2021/11/21 03:00:14;;;;;;;29.25;19.27;;;7.70;99.90;;;;;;2097186;28;20055;-71
2021/11/21 03:01:16;;;;;;;29.90;20.58;;;7.70;99.90;;;;;;2097020;28;20029;-70
2021/11/21 03:02:18;;;;;;;29.90;19.85;;;7.70;99.90;;;;;;2097258;28;20024;-72
2021/11/21 03:03:19;;;;;;;30.98;19.58;;;7.60;99.90;;;;;;2097028;28;20036;-72
2021/11/21 03:04:23;;;;;;;32.42;20.13;;;7.60;99.90;;;;;;2097175;28;20036;-72
2021/11/21 03:05:24;;;;;;;31.20;20.33;;;7.70;99.90;;;;;;2096718;28;20028;-71
2021/11/21 03:06:28;;;;;;;30.50;20.30;;;7.60;99.90;;;;;;2096665;28;20041;-71
2021/11/21 03:07:29;;;;;;;29.80;20.17;;;7.60;99.90;;;;;;2096657;28;20524;-71
2021/11/21 03:08:30;;;;;;;33.47;20.67;;;7.60;99.90;;;;;;2096129;28;20038;-72
2021/11/21 03:09:30;;;;;;;29.90;20.33;;;7.60;99.90;;;;;;2096663;28;20040;-72
2021/11/21 03:10:32;;;;;;;29.58;20.17;;;7.60;99.90;;;;;;2088246;28;20028;-72
2021/11/21 03:11:34;;;;;;;31.77;20.80;;;7.70;99.90;;;;;;2095773;28;20486;-72
2021/11/21 03:12:35;;;;;;;33.28;20.58;;;7.60;99.90;;;;;;2097166;28;20406;-71
2021/11/21 03:13:36;;;;;;;31.08;20.73;;;7.60;99.90;;;;;;2097195;28;20043;-71
2021/11/21 03:14:37;;;;;;;34.10;21.27;;;7.60;99.90;;;;;;2097335;28;20051;-71
2021/11/21 03:15:38;;;;;;;33.83;22.00;;;7.60;99.90;;;;;;2097208;28;20037;-72
2021/11/21 03:16:38;;;;;;;33.47;21.70;;;7.60;99.90;;;;;;2097494;28;20109;-72
2021/11/21 03:17:42;;;;;;;33.03;20.88;;;7.50;99.90;;;;;;2097297;28;20024;-71
2021/11/21 03:18:44;;;;;;;35.38;21.92;;;7.60;99.90;;;;;;2095992;28;20098;-71
2021/11/21 03:19:45;;;;;;;35.20;21.27;;;7.60;99.90;;;;;;2096593;28;20581;-71
2021/11/21 03:20:45;;;;;;;32.03;21.13;;;7.50;99.90;;;;;;2097265;28;20039;-70
2021/11/21 03:21:46;;;;;;;36.45;22.75;;;7.60;99.90;;;;;;2096535;28;20052;-70
2021/11/21 03:22:47;;;;;;;36.42;22.20;;;7.60;99.90;;;;;;2088214;28;20031;-71
2021/11/21 03:23:48;;;;;;;36.33;22.35;;;7.50;99.90;;;;;;2088204;28;20673;-71
2021/11/21 03:24:49;;;;;;;34.17;21.33;;;7.50;99.90;;;;;;2096532;28;20103;-70
2021/11/21 03:25:50;;;;;;;36.15;22.55;;;7.50;99.90;;;;;;2096421;28;20032;-70
2021/11/21 03:26:51;;;;;;;38.08;22.75;;;7.50;99.90;;;;;;2097059;28;20031;-70
2021/11/21 03:27:53;;;;;;;35.55;23.10;;;7.50;99.90;;;;;;2097006;28;20510;-71
2021/11/21 03:28:53;;;;;;;35.83;21.70;;;7.50;99.90;;;;;;2096624;28;20052;-70
2021/11/21 03:29:54;;;;;;;36.60;22.92;;;7.50;99.90;;;;;;2096800;28;20035;-70
2021/11/21 03:30:55;;;;;;;33.72;21.30;;;7.50;99.90;;;;;;2097127;28;20111;-70
2021/11/21 03:31:56;;;;;;;35.80;22.42;;;7.50;99.90;;;;;;2096156;28;20052;-70
2021/11/21 03:32:57;;;;;;;35.88;22.65;;;7.50;99.90;;;;;;2096361;28;20471;-71
2021/11/21 03:34:04;;;;;;;35.75;22.88;;;7.50;99.90;;;;;;2096304;28;20029;-70
2021/11/21 03:35:05;;;;;;;36.72;22.60;;;7.50;99.90;;;;;;2096565;28;20059;-70
2021/11/21 03:36:06;;;;;;;35.72;22.67;;;7.50;99.90;;;;;;2096911;28;20143;-70
2021/11/21 03:37:07;;;;;;;34.70;22.35;;;7.50;99.90;;;;;;2096904;28;20052;-70
2021/11/21 03:38:08;;;;;;;35.47;22.58;;;7.50;99.90;;;;;;2096450;28;20029;-71
2021/11/21 03:39:09;;;;;;;34.72;21.88;;;7.50;99.90;;;;;;2097071;28;20079;-70
2021/11/21 03:40:12;;;;;;;36.65;22.90;;;7.60;99.90;;;;;;2097010;28;20033;-70
2021/11/21 03:41:13;;;;;;;35.22;22.48;;;7.60;99.90;;;;;;2096392;28;20032;-71
2021/11/21 03:42:14;;;;;;;36.30;22.95;;;7.60;99.90;;;;;;2096985;28;20031;-70
2021/11/21 03:43:15;;;;;;;34.72;21.80;;;7.50;99.90;;;;;;2096959;28;20101;-70
2021/11/21 03:44:15;;;;;;;37.88;23.40;;;7.60;99.90;;;;;;2096826;28;20036;-70
2021/11/21 03:45:16;;;;;;;35.42;23.05;;;7.60;99.90;;;;;;2096858;28;20028;-70
2021/11/21 03:46:17;;;;;;;36.38;23.13;;;7.50;99.90;;;;;;2096904;28;20665;-70
2021/11/21 03:47:18;;;;;;;38.95;23.33;;;7.50;99.90;;;;;;2088076;28;20045;-70
2021/11/21 03:48:19;;;;;;;36.60;23.50;;;7.50;99.90;;;;;;2087534;28;20033;-70
2021/11/21 03:49:20;;;;;;;37.88;22.88;;;7.50;99.90;;;;;;2096689;28;20044;-70
2021/11/21 03:50:20;;;;;;;36.53;23.20;;;7.50;99.90;;;;;;2096785;28;20040;-70
2021/11/21 03:51:21;;;;;;;38.72;23.80;;;7.50;99.90;;;;;;2096670;28;20669;-71
2021/11/21 03:52:22;;;;;;;39.63;23.90;;;7.50;99.90;;;;;;2096304;28;20041;-70
2021/11/21 03:53:23;;;;;;;37.97;22.85;;;7.60;99.90;;;;;;2096257;28;20035;-71
2021/11/21 03:54:23;;;;;;;38.00;24.17;;;7.60;99.90;;;;;;2096832;28;20128;-70
2021/11/21 03:55:24;;;;;;;39.55;25.23;;;7.60;99.90;;;;;;2097030;28;20547;-71
2021/11/21 03:56:26;;;;;;;39.65;24.52;;;7.60;99.90;;;;;;2096380;28;20016;-71
2021/11/21 03:57:26;;;;;;;39.13;24.50;;;7.60;99.90;;;;;;2096466;28;20021;-70
2021/11/21 03:58:27;;;;;;;38.25;23.77;;;7.60;99.90;;;;;;2096097;28;20028;-71
2021/11/21 03:59:29;;;;;;;41.95;25.67;;;7.60;99.90;;;;;;2096262;28;20021;-71
2021/11/21 04:00:30;;;;;;;41.78;24.63;;;7.60;99.90;;;;;;2096221;28;20044;-71
2021/11/21 04:01:32;;;;;;;41.03;24.80;;;7.60;99.90;;;;;;2096248;28;20028;-71
2021/11/21 04:02:32;;;;;;;38.53;24.55;;;7.60;99.90;;;;;;2096813;28;20035;-71
2021/11/21 04:03:34;;;;;;;38.15;24.75;;;7.60;99.90;;;;;;2096881;28;20021;-71
2021/11/21 04:04:35;;;;;;;43.70;25.63;;;7.60;99.90;;;;;;2096806;28;20044;-70
2021/11/21 04:05:36;;;;;;;42.30;25.55;;;7.60;99.90;;;;;;2096881;28;20107;-71
2021/11/21 04:06:37;;;;;;;39.88;25.45;;;7.60;99.90;;;;;;2096877;28;20431;-71
2021/11/21 04:07:39;;;;;;;40.97;25.23;;;7.60;99.90;;;;;;2096256;28;20653;-71
2021/11/21 04:08:42;;;;;;;45.15;25.75;;;7.60;99.90;;;;;;2095816;28;20098;-71
2021/11/21 04:09:42;;;;;;;40.95;24.48;;;7.60;99.90;;;;;;2096751;28;20027;-71
2021/11/21 04:10:43;;;;;;;41.50;26.27;;;7.50;99.90;;;;;;2096676;28;20384;-71
2021/11/21 04:11:44;;;;;;;39.83;25.45;;;7.60;99.90;;;;;;2096204;28;20017;-71
2021/11/21 04:12:45;;;;;;;42.78;25.73;;;7.60;99.90;;;;;;2088109;28;20037;-71
2021/11/21 04:13:46;;;;;;;41.50;25.27;;;7.60;99.90;;;;;;2087968;28;20029;-71
2021/11/21 04:14:46;;;;;;;37.00;23.98;;;7.60;99.90;;;;;;2096577;28;20051;-71
2021/11/21 04:15:47;;;;;;;42.63;25.92;;;7.60;99.90;;;;;;2096856;28;20759;-71
2021/11/21 04:16:48;;;;;;;40.42;24.88;;;7.60;99.90;;;;;;2098246;28;20027;-71
2021/11/21 04:17:49;;;;;;;38.90;25.10;;;7.60;99.90;;;;;;2098932;28;20036;-71
2021/11/21 04:18:49;;;;;;;38.97;24.73;;;7.60;99.90;;;;;;2098138;28;20178;-71
2021/11/21 04:19:50;;;;;;;36.65;23.65;;;7.60;99.90;;;;;;2097475;28;20050;-71
2021/11/21 04:20:51;;;;;;;40.47;25.63;;;7.60;99.90;;;;;;2096710;28;20028;-71
2021/11/21 04:21:51;;;;;;;40.65;25.50;;;7.70;99.90;;;;;;2096112;28;20086;-71
2021/11/21 04:22:52;;;;;;;38.53;24.35;;;7.60;99.90;;;;;;2096933;28;20511;-71
2021/11/21 04:23:54;;;;;;;39.92;24.48;;;7.60;99.90;;;;;;2096586;28;20410;-71
2021/11/21 04:24:57;;;;;;;43.00;25.60;;;7.70;99.90;;;;;;2098314;28;20059;-71
2021/11/21 04:25:59;;;;;;;41.95;25.60;;;7.60;99.90;;;;;;2098563;28;20101;-71
2021/11/21 04:27:00;;;;;;;39.75;25.25;;;7.60;99.90;;;;;;2098381;28;20119;-72
2021/11/21 04:28:00;;;;;;;42.47;25.48;;;7.60;99.90;;;;;;2098621;28;20039;-71
2021/11/21 04:29:02;;;;;;;40.80;25.35;;;7.60;99.90;;;;;;2099212;28;20477;-71
2021/11/21 04:30:06;;;;;;;41.17;24.38;;;7.60;99.90;;;;;;2099587;28;20020;-71
2021/11/21 04:31:07;;;;;;;41.67;25.55;;;7.60;99.90;;;;;;2099009;28;20163;-71
2021/11/21 04:32:08;;;;;;;41.67;25.10;;;7.60;99.90;;;;;;2099298;28;20028;-71
2021/11/21 04:33:10;;;;;;;41.53;25.60;;;7.70;99.90;;;;;;2099346;28;20563;-71
2021/11/21 04:34:11;;;;;;;37.75;24.10;;;7.70;99.90;;;;;;2099100;28;20032;-71
2021/11/21 04:35:15;;;;;;;44.15;26.10;;;7.70;99.90;;;;;;2099163;28;20029;-71
2021/11/21 04:36:15;;;;;;;44.40;25.52;;;7.70;99.90;;;;;;2098276;28;20353;-70
2021/11/21 04:37:18;;;;;;;42.83;25.58;;;7.70;99.90;;;;;;2098127;28;20388;-70
2021/11/21 04:38:21;;;;;;;43.38;26.27;;;7.70;99.90;;;;;;2098080;28;20029;-71
2021/11/21 04:39:22;;;;;;;44.10;25.98;;;7.60;99.90;;;;;;2098541;28;20016;-70
2021/11/21 04:40:23;;;;;;;41.72;26.02;;;7.70;99.90;;;;;;2097602;28;20535;-70
2021/11/21 04:41:24;;;;;;;45.22;26.55;;;7.70;99.90;;;;;;2097430;28;20043;-71
2021/11/21 04:42:25;;;;;;;42.58;26.55;;;7.70;99.90;;;;;;2098265;28;20021;-70
2021/11/21 04:43:26;;;;;;;43.90;26.50;;;7.70;99.90;;;;;;2097790;28;20106;-71
2021/11/21 04:44:27;;;;;;;45.40;26.77;;;7.70;99.90;;;;;;2098047;28;20020;-70
2021/11/21 04:45:28;;;;;;;42.42;26.73;;;7.70;99.90;;;;;;2098577;28;20032;-71
2021/11/21 04:46:29;;;;;;;45.88;27.30;;;7.70;99.90;;;;;;2098328;28;20416;-71
2021/11/21 04:47:30;;;;;;;42.95;26.73;;;7.70;99.90;;;;;;2098377;28;20035;-72
2021/11/21 04:48:31;;;;;;;49.08;26.70;;;7.70;99.90;;;;;;2097126;28;20036;-71
2021/11/21 04:49:34;;;;;;;44.55;26.70;;;7.70;99.90;;;;;;2097918;28;20036;-71
2021/11/21 04:50:35;;;;;;;43.40;25.98;;;7.70;99.90;;;;;;2098347;28;20056;-70
2021/11/21 04:51:36;;;;;;;44.17;27.55;;;7.70;99.90;;;;;;2097910;28;20044;-71
2021/11/21 04:52:37;;;;;;;42.55;26.00;;;7.70;99.90;;;;;;2098116;28;20029;-70
2021/11/21 04:53:38;;;;;;;43.75;26.13;;;7.70;99.90;;;;;;2097946;28;20549;-70
2021/11/21 04:54:39;;;;;;;42.45;25.95;;;7.70;99.90;;;;;;2097811;28;20107;-70
2021/11/21 04:55:40;;;;;;;44.50;26.52;;;7.60;99.90;;;;;;2097668;28;20033;-70
2021/11/21 04:56:44;;;;;;;42.63;26.23;;;7.60;99.90;;;;;;2098277;28;20028;-70
2021/11/21 04:57:45;;;;;;;44.25;26.33;;;7.60;99.90;;;;;;2098168;28;20039;-70
2021/11/21 04:58:46;;;;;;;42.15;25.63;;;7.60;99.90;;;;;;2097675;28;20035;-70
2021/11/21 04:59:46;;;;;;;44.03;26.23;;;7.60;99.90;;;;;;2097884;28;20380;-70
2021/11/21 05:00:47;;;;;;;43.70;26.10;;;7.60;99.90;;;;;;2098693;28;20013;-70
2021/11/21 05:01:49;;;;;;;44.22;26.60;;;7.60;99.90;;;;;;2097887;28;20028;-70
2021/11/21 05:02:51;;;;;;;43.17;26.65;;;7.60;99.90;;;;;;2097649;28;20093;-71
2021/11/21 05:03:52;;;;;;;43.83;26.30;;;7.60;99.90;;;;;;2097660;28;20028;-71
2021/11/21 05:04:53;;;;;;;46.67;26.45;;;7.60;99.90;;;;;;2097809;28;20497;-70
2021/11/21 05:05:54;;;;;;;40.95;25.50;;;7.60;99.90;;;;;;2098305;28;20082;-71
2021/11/21 05:06:55;;;;;;;45.65;26.48;;;7.60;99.90;;;;;;2097361;28;20408;-71
2021/11/21 05:07:56;;;;;;;45.75;27.02;;;7.60;99.90;;;;;;2097545;28;20029;-70
2021/11/21 05:08:56;;;;;;;41.95;26.48;;;7.60;99.90;;;;;;2097800;28;20024;-69
2021/11/21 05:09:57;;;;;;;42.95;25.40;;;7.60;99.90;;;;;;2098211;28;20024;-71
2021/11/21 05:10:58;;;;;;;43.85;25.95;;;7.60;99.90;;;;;;2097992;28;20024;-70
2021/11/21 05:11:59;;;;;;;41.65;26.10;;;7.60;99.90;;;;;;2097821;28;20039;-70
2021/11/21 05:12:59;;;;;;;43.58;26.23;;;7.60;99.90;;;;;;2097871;28;20111;-70
2021/11/21 05:14:03;;;;;;;44.30;26.33;;;7.60;99.90;;;;;;2097795;28;20035;-70
2021/11/21 05:15:06;;;;;;;45.60;26.42;;;7.60;99.90;;;;;;2097968;28;20833;-70
2021/11/21 05:16:08;;;;;;;43.42;26.40;;;7.60;99.90;;;;;;2097275;28;20021;-70
2021/11/21 05:17:08;;;;;;;43.10;25.65;;;7.60;99.90;;;;;;2097445;28;20602;-70
2021/11/21 05:18:09;;;;;;;44.80;27.05;;;7.50;99.90;;;;;;2097441;28;20025;-70